sensor_id;sensor_type;location;lat;lon;timestamp;pressure;altitude;pressure_sealevel;temperature;humidity
60976;BME280;46849;48.154;17.042;2022-12-07T00:01:45;98592.03;;;3.71;100.00
60976;BME280;46849;48.154;17.042;2022-12-07T00:04:30;98588.50;;;3.74;100.00
60976;BME280;46849;48.154;17.042;2022-12-07T00:07:14;98591.97;;;3.73;100.00
60976;BME280;46849;48.154;17.042;2022-12-07T00:09:59;98590.88;;;3.78;100.00
60976;BME280;46849;48.154;17.042;2022-12-07T00:12:43;98590.03;;;3.78;100.00
60976;BME280;46849;48.154;17.042;2022-12-07T00:15:29;98590.28;;;3.72;100.00
60976;BME280;46849;48.154;17.042;2022-12-07T00:18:14;98584.91;;;3.76;100.00
60976;BME280;46849;48.154;17.042;2022-12-07T00:21:00;98584.91;;;3.76;100.00
60976;BME280;46849;48.154;17.042;2022-12-07T00:23:47;98589.06;;;3.60;100.00
60976;BME280;46849;48.154;17.042;2022-12-07T00:26:37;98580.09;;;3.48;100.00
60976;BME280;46849;48.154;17.042;2022-12-07T00:29:23;98584.47;;;3.45;100.00
60976;BME280;46849;48.154;17.042;2022-12-07T00:32:08;98580.25;;;3.43;100.00
60976;BME280;46849;48.154;17.042;2022-12-07T00:34:52;98587.97;;;3.44;100.00
60976;BME280;46849;48.154;17.042;2022-12-07T00:37:37;98581.09;;;3.43;100.00
60976;BME280;46849;48.154;17.042;2022-12-07T00:40:22;98588.22;;;3.59;100.00
60976;BME280;46849;48.154;17.042;2022-12-07T00:43:07;98585.06;;;3.52;100.00
60976;BME280;46849;48.154;17.042;2022-12-07T00:45:52;98582.78;;;3.44;100.00
60976;BME280;46849;48.154;17.042;2022-12-07T00:48:37;98574.19;;;3.44;100.00
60976;BME280;46849;48.154;17.042;2022-12-07T00:51:23;98571.53;;;3.45;100.00
60976;BME280;46849;48.154;17.042;2022-12-07T00:54:08;98572.41;;;3.44;100.00
60976;BME280;46849;48.154;17.042;2022-12-07T00:56:54;98574.19;;;3.23;100.00
60976;BME280;46849;48.154;17.042;2022-12-07T00:59:39;98578.31;;;3.27;100.00
60976;BME280;46849;48.154;17.042;2022-12-07T01:02:23;98573.06;;;3.29;100.00
60976;BME280;46849;48.154;17.042;2022-12-07T01:05:08;98574.31;;;3.41;100.00
60976;BME280;46849;48.154;17.042;2022-12-07T01:07:53;98580.19;;;3.44;100.00
60976;BME280;46849;48.154;17.042;2022-12-07T01:10:37;98586.41;;;3.40;100.00
60976;BME280;46849;48.154;17.042;2022-12-07T01:13:22;98578.97;;;3.32;100.00
60976;BME280;46849;48.154;17.042;2022-12-07T01:16:07;98580.44;;;3.38;100.00
60976;BME280;46849;48.154;17.042;2022-12-07T01:18:55;98576.25;;;3.36;100.00
60976;BME280;46849;48.154;17.042;2022-12-07T01:21:40;98576.97;;;3.39;100.00
60976;BME280;46849;48.154;17.042;2022-12-07T01:24:24;98583.63;;;3.45;100.00
60976;BME280;46849;48.154;17.042;2022-12-07T01:27:10;98575.91;;;3.43;100.00
60976;BME280;46849;48.154;17.042;2022-12-07T01:29:54;98581.16;;;3.42;100.00
60976;BME280;46849;48.154;17.042;2022-12-07T01:32:39;98579.44;;;3.42;100.00
60976;BME280;46849;48.154;17.042;2022-12-07T01:35:23;98579.50;;;3.41;100.00
60976;BME280;46849;48.154;17.042;2022-12-07T01:38:08;98573.66;;;3.36;100.00
60976;BME280;46849;48.154;17.042;2022-12-07T01:40:54;98575.41;;;3.35;100.00
60976;BME280;46849;48.154;17.042;2022-12-07T01:44:31;98578.91;;;3.34;100.00
60976;BME280;46849;48.154;17.042;2022-12-07T01:47:09;98575.06;;;3.43;100.00
60976;BME280;46849;48.154;17.042;2022-12-07T01:49:54;98571.53;;;3.45;100.00
60976;BME280;46849;48.154;17.042;2022-12-07T01:52:39;98567.56;;;3.37;100.00
60976;BME280;46849;48.154;17.042;2022-12-07T01:55:24;98566.28;;;3.26;100.00
60976;BME280;46849;48.154;17.042;2022-12-07T01:58:10;98563.22;;;3.16;100.00
60976;BME280;46849;48.154;17.042;2022-12-07T02:00:55;98558.00;;;3.18;100.00
60976;BME280;46849;48.154;17.042;2022-12-07T02:03:42;98553.06;;;3.12;100.00
60976;BME280;46849;48.154;17.042;2022-12-07T02:06:27;98549.28;;;2.98;100.00
60976;BME280;46849;48.154;17.042;2022-12-07T02:09:12;98545.31;;;2.89;100.00
60976;BME280;46849;48.154;17.042;2022-12-07T02:11:57;98546.03;;;2.93;100.00
60976;BME280;46849;48.154;17.042;2022-12-07T02:14:41;98542.78;;;2.88;100.00
60976;BME280;46849;48.154;17.042;2022-12-07T02:17:38;98547.56;;;2.76;100.00
60976;BME280;46849;48.154;17.042;2022-12-07T02:20:39;98541.44;;;2.79;100.00
60976;BME280;46849;48.154;17.042;2022-12-07T02:29:45;98534.38;;;2.60;100.00
60976;BME280;46849;48.154;17.042;2022-12-07T02:35:47;98540.91;;;2.70;100.00
60976;BME280;46849;48.154;17.042;2022-12-07T02:38:39;98548.34;;;2.78;100.00
60976;BME280;46849;48.154;17.042;2022-12-07T02:41:33;98541.72;;;2.71;100.00
60976;BME280;46849;48.154;17.042;2022-12-07T02:44:24;98546.88;;;2.71;100.00
60976;BME280;46849;48.154;17.042;2022-12-07T02:47:12;98554.97;;;2.63;100.00
60976;BME280;46849;48.154;17.042;2022-12-07T02:50:03;98546.31;;;2.64;100.00
60976;BME280;46849;48.154;17.042;2022-12-07T02:52:47;98545.22;;;2.70;100.00
60976;BME280;46849;48.154;17.042;2022-12-07T02:55:37;98546.66;;;2.77;100.00
60976;BME280;46849;48.154;17.042;2022-12-07T02:59:16;98548.84;;;2.66;100.00
60976;BME280;46849;48.154;17.042;2022-12-07T03:10:35;98545.09;;;2.73;100.00
60976;BME280;46849;48.154;17.042;2022-12-07T03:13:32;98546.63;;;2.79;100.00
60976;BME280;46849;48.154;17.042;2022-12-07T03:16:26;98540.06;;;2.91;100.00
60976;BME280;46849;48.154;17.042;2022-12-07T03:19:17;98547.03;;;2.90;100.00
60976;BME280;46849;48.154;17.042;2022-12-07T03:22:10;98544.78;;;2.81;100.00
60976;BME280;46849;48.154;17.042;2022-12-07T03:25:04;98545.25;;;2.91;100.00
60976;BME280;46849;48.154;17.042;2022-12-07T03:30:45;98548.94;;;2.85;100.00
60976;BME280;46849;48.154;17.042;2022-12-07T03:33:49;98546.16;;;2.90;100.00
60976;BME280;46849;48.154;17.042;2022-12-07T03:36:47;98551.88;;;2.98;100.00
60976;BME280;46849;48.154;17.042;2022-12-07T03:39:44;98556.28;;;2.96;100.00
60976;BME280;46849;48.154;17.042;2022-12-07T03:42:30;98557.00;;;3.00;100.00
60976;BME280;46849;48.154;17.042;2022-12-07T03:45:15;98554.78;;;2.90;100.00
60976;BME280;46849;48.154;17.042;2022-12-07T03:54:21;98561.56;;;2.93;100.00
60976;BME280;46849;48.154;17.042;2022-12-07T03:57:11;98562.97;;;3.02;100.00
60976;BME280;46849;48.154;17.042;2022-12-07T03:59:57;98558.72;;;2.99;100.00
60976;BME280;46849;48.154;17.042;2022-12-07T04:02:47;98557.31;;;2.92;100.00
60976;BME280;46849;48.154;17.042;2022-12-07T04:05:57;98559.84;;;2.93;100.00
60976;BME280;46849;48.154;17.042;2022-12-07T04:08:42;98560.44;;;3.00;100.00
60976;BME280;46849;48.154;17.042;2022-12-07T04:11:27;98559.66;;;2.98;100.00
60976;BME280;46849;48.154;17.042;2022-12-07T04:14:12;98556.81;;;3.04;100.00
60976;BME280;46849;48.154;17.042;2022-12-07T04:17:02;98568.00;;;3.05;100.00
60976;BME280;46849;48.154;17.042;2022-12-07T04:19:47;98561.19;;;3.02;100.00
60976;BME280;46849;48.154;17.042;2022-12-07T04:22:38;98567.13;;;3.48;100.00
60976;BME280;46849;48.154;17.042;2022-12-07T04:25:23;98566.91;;;3.31;100.00
60976;BME280;46849;48.154;17.042;2022-12-07T04:28:12;98566.84;;;3.12;100.00
60976;BME280;46849;48.154;17.042;2022-12-07T04:30:57;98565.47;;;3.03;100.00
60976;BME280;46849;48.154;17.042;2022-12-07T04:33:44;98560.94;;;3.08;100.00
60976;BME280;46849;48.154;17.042;2022-12-07T04:36:29;98558.88;;;3.17;100.00
60976;BME280;46849;48.154;17.042;2022-12-07T04:39:23;98565.03;;;3.14;100.00
60976;BME280;46849;48.154;17.042;2022-12-07T04:42:09;98565.34;;;3.06;100.00
60976;BME280;46849;48.154;17.042;2022-12-07T04:44:57;98569.50;;;3.11;100.00
60976;BME280;46849;48.154;17.042;2022-12-07T04:48:03;98569.56;;;3.09;100.00
60976;BME280;46849;48.154;17.042;2022-12-07T04:51:10;98570.59;;;3.05;100.00
60976;BME280;46849;48.154;17.042;2022-12-07T04:53:56;98566.44;;;3.01;100.00
60976;BME280;46849;48.154;17.042;2022-12-07T04:56:42;98564.44;;;3.07;100.00
60976;BME280;46849;48.154;17.042;2022-12-07T04:59:27;98557.59;;;3.06;100.00
60976;BME280;46849;48.154;17.042;2022-12-07T05:02:15;98564.38;;;3.09;100.00
60976;BME280;46849;48.154;17.042;2022-12-07T05:05:03;98566.97;;;3.09;100.00
60976;BME280;46849;48.154;17.042;2022-12-07T05:07:51;98567.94;;;3.06;100.00
60976;BME280;46849;48.154;17.042;2022-12-07T05:10:36;98563.59;;;3.07;100.00
60976;BME280;46849;48.154;17.042;2022-12-07T05:13:21;98570.81;;;3.21;100.00
60976;BME280;46849;48.154;17.042;2022-12-07T05:16:07;98570.69;;;3.24;100.00
60976;BME280;46849;48.154;17.042;2022-12-07T05:18:52;98569.03;;;3.22;100.00
60976;BME280;46849;48.154;17.042;2022-12-07T05:21:37;98572.66;;;3.17;100.00
60976;BME280;46849;48.154;17.042;2022-12-07T05:24:23;98579.53;;;3.18;100.00
60976;BME280;46849;48.154;17.042;2022-12-07T05:27:08;98570.28;;;3.13;100.00
60976;BME280;46849;48.154;17.042;2022-12-07T05:29:53;98572.47;;;3.01;100.00
60976;BME280;46849;48.154;17.042;2022-12-07T05:32:37;98576.72;;;3.02;100.00
60976;BME280;46849;48.154;17.042;2022-12-07T05:35:22;98572.41;;;3.03;100.00
60976;BME280;46849;48.154;17.042;2022-12-07T05:38:08;98576.56;;;3.28;100.00
60976;BME280;46849;48.154;17.042;2022-12-07T05:40:53;98564.19;;;3.14;100.00
60976;BME280;46849;48.154;17.042;2022-12-07T05:43:40;98564.72;;;3.64;100.00
60976;BME280;46849;48.154;17.042;2022-12-07T05:46:25;98578.50;;;3.64;100.00
60976;BME280;46849;48.154;17.042;2022-12-07T05:49:09;98572.69;;;3.38;100.00
60976;BME280;46849;48.154;17.042;2022-12-07T05:51:54;98576.06;;;3.19;100.00
60976;BME280;46849;48.154;17.042;2022-12-07T05:54:39;98570.22;;;3.14;100.00
60976;BME280;46849;48.154;17.042;2022-12-07T05:57:28;98574.13;;;3.45;100.00
60976;BME280;46849;48.154;17.042;2022-12-07T06:00:13;98574.94;;;3.46;100.00
60976;BME280;46849;48.154;17.042;2022-12-07T06:02:59;98572.59;;;3.19;100.00
60976;BME280;46849;48.154;17.042;2022-12-07T06:05:46;98575.59;;;3.10;100.00
60976;BME280;46849;48.154;17.042;2022-12-07T06:08:31;98572.41;;;3.03;100.00
60976;BME280;46849;48.154;17.042;2022-12-07T06:11:15;98584.22;;;3.08;100.00
60976;BME280;46849;48.154;17.042;2022-12-07T06:14:21;98574.25;;;2.99;100.00
60976;BME280;46849;48.154;17.042;2022-12-07T06:17:05;98583.94;;;2.94;100.00
60976;BME280;46849;48.154;17.042;2022-12-07T06:19:51;98584.13;;;2.89;100.00
60976;BME280;46849;48.154;17.042;2022-12-07T06:22:36;98580.78;;;2.87;100.00
60976;BME280;46849;48.154;17.042;2022-12-07T06:25:23;98584.19;;;2.88;100.00
60976;BME280;46849;48.154;17.042;2022-12-07T06:28:10;98585.06;;;2.88;100.00
60976;BME280;46849;48.154;17.042;2022-12-07T06:30:59;98577.03;;;2.94;100.00
60976;BME280;46849;48.154;17.042;2022-12-07T06:33:45;98585.47;;;3.00;100.00
60976;BME280;46849;48.154;17.042;2022-12-07T06:36:31;98588.72;;;3.05;100.00
60976;BME280;46849;48.154;17.042;2022-12-07T06:39:15;98596.75;;;2.97;100.00
60976;BME280;46849;48.154;17.042;2022-12-07T06:42:00;98596.72;;;2.99;100.00
60976;BME280;46849;48.154;17.042;2022-12-07T06:44:45;98590.88;;;2.93;100.00
60976;BME280;46849;48.154;17.042;2022-12-07T06:47:31;98594.06;;;2.78;100.00
60976;BME280;46849;48.154;17.042;2022-12-07T06:50:15;98586.31;;;2.78;100.00
60976;BME280;46849;48.154;17.042;2022-12-07T06:53:04;98585.13;;;2.87;100.00
60976;BME280;46849;48.154;17.042;2022-12-07T06:55:50;98589.63;;;2.81;100.00
60976;BME280;46849;48.154;17.042;2022-12-07T06:58:35;98592.69;;;2.91;100.00
60976;BME280;46849;48.154;17.042;2022-12-07T07:01:19;98582.22;;;2.94;100.00
60976;BME280;46849;48.154;17.042;2022-12-07T07:04:04;98595.09;;;2.96;100.00
60976;BME280;46849;48.154;17.042;2022-12-07T07:06:50;98591.84;;;2.91;100.00
60976;BME280;46849;48.154;17.042;2022-12-07T07:09:35;98588.97;;;2.99;100.00
60976;BME280;46849;48.154;17.042;2022-12-07T07:12:20;98599.31;;;2.99;100.00
60976;BME280;46849;48.154;17.042;2022-12-07T07:15:06;98595.69;;;3.03;100.00
60976;BME280;46849;48.154;17.042;2022-12-07T07:17:50;98590.06;;;3.14;100.00
60976;BME280;46849;48.154;17.042;2022-12-07T07:20:36;98596.81;;;3.18;100.00
60976;BME280;46849;48.154;17.042;2022-12-07T07:23:21;98596.69;;;3.21;100.00
60976;BME280;46849;48.154;17.042;2022-12-07T07:26:06;98603.28;;;3.28;100.00
60976;BME280;46849;48.154;17.042;2022-12-07T07:28:51;98595.16;;;3.38;100.00
60976;BME280;46849;48.154;17.042;2022-12-07T07:31:36;98610.19;;;3.50;100.00
60976;BME280;46849;48.154;17.042;2022-12-07T07:34:22;98608.31;;;3.54;100.00
60976;BME280;46849;48.154;17.042;2022-12-07T07:37:07;98610.97;;;3.52;100.00
60976;BME280;46849;48.154;17.042;2022-12-07T07:39:53;98611.66;;;3.56;100.00
60976;BME280;46849;48.154;17.042;2022-12-07T07:42:38;98613.03;;;3.44;100.00
60976;BME280;46849;48.154;17.042;2022-12-07T07:45:25;98616.28;;;3.49;100.00
60976;BME280;46849;48.154;17.042;2022-12-07T07:48:15;98621.38;;;3.92;100.00
60976;BME280;46849;48.154;17.042;2022-12-07T07:51:16;98624.47;;;4.01;100.00
60976;BME280;46849;48.154;17.042;2022-12-07T07:54:02;98618.00;;;3.90;100.00
60976;BME280;46849;48.154;17.042;2022-12-07T07:56:47;98604.03;;;3.74;100.00
60976;BME280;46849;48.154;17.042;2022-12-07T07:59:32;98604.28;;;3.67;100.00
60976;BME280;46849;48.154;17.042;2022-12-07T08:02:19;98605.66;;;3.55;100.00
60976;BME280;46849;48.154;17.042;2022-12-07T08:05:05;98621.53;;;3.68;100.00
60976;BME280;46849;48.154;17.042;2022-12-07T08:07:51;98609.22;;;3.74;100.00
60976;BME280;46849;48.154;17.042;2022-12-07T08:10:36;98619.53;;;3.75;100.00
60976;BME280;46849;48.154;17.042;2022-12-07T08:13:21;98615.22;;;3.74;100.00
60976;BME280;46849;48.154;17.042;2022-12-07T08:16:09;98624.13;;;3.68;100.00
60976;BME280;46849;48.154;17.042;2022-12-07T08:18:53;98625.72;;;3.71;100.00
60976;BME280;46849;48.154;17.042;2022-12-07T08:21:39;98628.06;;;3.77;100.00
60976;BME280;46849;48.154;17.042;2022-12-07T08:24:23;98624.31;;;3.85;100.00
60976;BME280;46849;48.154;17.042;2022-12-07T08:27:09;98626.72;;;3.68;100.00
60976;BME280;46849;48.154;17.042;2022-12-07T08:29:53;98628.44;;;3.68;100.00
60976;BME280;46849;48.154;17.042;2022-12-07T08:32:38;98634.34;;;3.72;100.00
60976;BME280;46849;48.154;17.042;2022-12-07T08:35:24;98639.13;;;3.81;100.00
60976;BME280;46849;48.154;17.042;2022-12-07T08:38:09;98636.00;;;3.93;100.00
60976;BME280;46849;48.154;17.042;2022-12-07T08:40:54;98629.34;;;3.88;100.00
60976;BME280;46849;48.154;17.042;2022-12-07T08:43:40;98618.97;;;3.88;100.00
60976;BME280;46849;48.154;17.042;2022-12-07T08:46:37;98613.00;;;3.86;100.00
60976;BME280;46849;48.154;17.042;2022-12-07T08:49:36;98615.59;;;3.86;100.00
60976;BME280;46849;48.154;17.042;2022-12-07T08:52:22;98631.25;;;4.24;100.00
60976;BME280;46849;48.154;17.042;2022-12-07T08:55:09;98631.88;;;4.68;100.00
60976;BME280;46849;48.154;17.042;2022-12-07T08:57:55;98638.59;;;4.72;100.00
60976;BME280;46849;48.154;17.042;2022-12-07T09:00:42;98636.66;;;4.58;100.00
60976;BME280;46849;48.154;17.042;2022-12-07T09:03:27;98638.91;;;4.47;100.00
60976;BME280;46849;48.154;17.042;2022-12-07T09:06:13;98645.91;;;4.44;100.00
60976;BME280;46849;48.154;17.042;2022-12-07T09:08:59;98645.31;;;4.38;100.00
60976;BME280;46849;48.154;17.042;2022-12-07T09:11:45;98638.91;;;4.47;100.00
60976;BME280;46849;48.154;17.042;2022-12-07T09:14:30;98640.22;;;4.55;100.00
60976;BME280;46849;48.154;17.042;2022-12-07T09:17:15;98625.63;;;4.34;100.00
60976;BME280;46849;48.154;17.042;2022-12-07T09:20:00;98631.25;;;4.24;100.00
60976;BME280;46849;48.154;17.042;2022-12-07T09:22:45;98630.22;;;4.07;100.00
60976;BME280;46849;48.154;17.042;2022-12-07T09:25:30;98625.50;;;4.17;100.00
60976;BME280;46849;48.154;17.042;2022-12-07T09:28:14;98631.03;;;4.29;100.00
60976;BME280;46849;48.154;17.042;2022-12-07T09:30:59;98630.31;;;4.25;100.00
60976;BME280;46849;48.154;17.042;2022-12-07T09:33:44;98627.44;;;4.31;100.00
60976;BME280;46849;48.154;17.042;2022-12-07T09:36:29;98618.44;;;4.40;100.00
60976;BME280;46849;48.154;17.042;2022-12-07T09:39:13;98614.00;;;4.42;100.00
60976;BME280;46849;48.154;17.042;2022-12-07T09:41:59;98609.44;;;4.28;100.00
60976;BME280;46849;48.154;17.042;2022-12-07T09:44:47;98613.56;;;4.32;100.00
60976;BME280;46849;48.154;17.042;2022-12-07T09:47:32;98600.19;;;4.61;100.00
60976;BME280;46849;48.154;17.042;2022-12-07T09:50:24;98597.59;;;4.61;100.00
60976;BME280;46849;48.154;17.042;2022-12-07T09:53:24;98591.31;;;4.65;100.00
60976;BME280;46849;48.154;17.042;2022-12-07T09:56:17;98584.31;;;4.67;100.00
60976;BME280;46849;48.154;17.042;2022-12-07T09:59:02;98581.22;;;4.96;99.41
60976;BME280;46849;48.154;17.042;2022-12-07T10:01:49;98584.34;;;5.91;95.32
60976;BME280;46849;48.154;17.042;2022-12-07T10:04:37;98580.84;;;6.59;89.19
60976;BME280;46849;48.154;17.042;2022-12-07T10:07:22;98578.16;;;7.38;86.10
60976;BME280;46849;48.154;17.042;2022-12-07T10:10:14;98585.41;;;7.78;82.09
60976;BME280;46849;48.154;17.042;2022-12-07T10:15:55;98565.44;;;7.17;82.19
60976;BME280;46849;48.154;17.042;2022-12-07T10:18:41;98571.09;;;7.09;76.30
60976;BME280;46849;48.154;17.042;2022-12-07T10:21:26;98570.59;;;8.22;75.96
60976;BME280;46849;48.154;17.042;2022-12-07T10:26:56;98567.78;;;9.36;64.44
60976;BME280;46849;48.154;17.042;2022-12-07T10:29:48;98567.38;;;9.55;66.54
60976;BME280;46849;48.154;17.042;2022-12-07T10:32:35;98562.63;;;10.63;64.56
60976;BME280;46849;48.154;17.042;2022-12-07T10:35:29;98558.66;;;10.20;64.30
60976;BME280;46849;48.154;17.042;2022-12-07T10:38:16;98560.28;;;10.47;62.44
60976;BME280;46849;48.154;17.042;2022-12-07T10:41:08;98557.81;;;10.70;63.29
60976;BME280;46849;48.154;17.042;2022-12-07T10:43:57;98558.91;;;10.79;63.45
60976;BME280;46849;48.154;17.042;2022-12-07T10:53:22;98553.66;;;9.65;56.66
60976;BME280;46849;48.154;17.042;2022-12-07T11:05:50;98545.78;;;11.62;62.37
60976;BME280;46849;48.154;17.042;2022-12-07T11:08:53;98535.41;;;11.61;62.92
60976;BME280;46849;48.154;17.042;2022-12-07T11:12:03;98538.50;;;11.43;55.52
60976;BME280;46849;48.154;17.042;2022-12-07T11:15:18;98536.38;;;11.48;54.99
60976;BME280;46849;48.154;17.042;2022-12-07T11:18:14;98535.53;;;11.59;59.79
60976;BME280;46849;48.154;17.042;2022-12-07T11:24:15;98525.59;;;11.28;59.89
60976;BME280;46849;48.154;17.042;2022-12-07T11:27:05;98530.31;;;11.82;59.31
60976;BME280;46849;48.154;17.042;2022-12-07T11:30:43;98526.50;;;11.86;55.80
60976;BME280;46849;48.154;17.042;2022-12-07T11:34:05;98528.72;;;12.48;57.65
60976;BME280;46849;48.154;17.042;2022-12-07T11:36:56;98524.91;;;12.41;54.39
60976;BME280;46849;48.154;17.042;2022-12-07T11:39:46;98516.81;;;11.75;51.73
60976;BME280;46849;48.154;17.042;2022-12-07T11:42:38;98519.13;;;9.98;55.88
60976;BME280;46849;48.154;17.042;2022-12-07T11:45:31;98523.88;;;9.67;62.22
60976;BME280;46849;48.154;17.042;2022-12-07T11:48:24;98522.16;;;9.92;59.57
60976;BME280;46849;48.154;17.042;2022-12-07T11:51:14;98514.63;;;9.09;58.45
60976;BME280;46849;48.154;17.042;2022-12-07T11:54:27;98528.78;;;8.37;65.83
60976;BME280;46849;48.154;17.042;2022-12-07T11:57:18;98529.22;;;7.87;59.78
60976;BME280;46849;48.154;17.042;2022-12-07T12:00:08;98529.22;;;7.58;61.28
60976;BME280;46849;48.154;17.042;2022-12-07T12:03:02;98530.06;;;7.58;61.74
60976;BME280;46849;48.154;17.042;2022-12-07T12:05:48;98525.41;;;7.34;64.05
60976;BME280;46849;48.154;17.042;2022-12-07T12:08:40;98524.59;;;7.18;66.45
60976;BME280;46849;48.154;17.042;2022-12-07T12:11:47;98532.53;;;7.31;67.28
60976;BME280;46849;48.154;17.042;2022-12-07T12:21:09;98519.13;;;6.61;67.62
60976;BME280;46849;48.154;17.042;2022-12-07T12:24:01;98524.41;;;6.59;73.54
60976;BME280;46849;48.154;17.042;2022-12-07T12:26:51;98522.88;;;6.71;70.76
60976;BME280;46849;48.154;17.042;2022-12-07T12:29:39;98525.91;;;6.63;68.60
60976;BME280;46849;48.154;17.042;2022-12-07T12:32:38;98525.50;;;6.55;70.54
60976;BME280;46849;48.154;17.042;2022-12-07T12:35:40;98523.59;;;6.43;69.91
60976;BME280;46849;48.154;17.042;2022-12-07T12:47:51;98530.03;;;6.19;71.79
60976;BME280;46849;48.154;17.042;2022-12-07T12:51:52;98521.97;;;7.63;72.20
60976;BME280;46849;48.154;17.042;2022-12-07T12:57:26;98517.69;;;8.33;57.51
60976;BME280;46849;48.154;17.042;2022-12-07T13:00:22;98526.84;;;8.26;63.33
60976;BME280;46849;48.154;17.042;2022-12-07T13:03:23;98526.69;;;8.42;56.33
60976;BME280;46849;48.154;17.042;2022-12-07T13:06:35;98530.75;;;9.42;65.42
60976;BME280;46849;48.154;17.042;2022-12-07T13:09:32;98516.25;;;10.15;62.83
60976;BME280;46849;48.154;17.042;2022-12-07T13:20:39;98523.41;;;10.00;57.30
60976;BME280;46849;48.154;17.042;2022-12-07T13:24:34;98529.72;;;11.55;52.60
60976;BME280;46849;48.154;17.042;2022-12-07T13:55:14;98527.16;;;11.19;54.61
60976;BME280;46849;48.154;17.042;2022-12-07T13:59:30;98530.63;;;10.71;53.81
60976;BME280;46849;48.154;17.042;2022-12-07T14:03:29;98526.09;;;11.33;54.82
60976;BME280;46849;48.154;17.042;2022-12-07T14:06:49;98535.31;;;11.62;56.67
60976;BME280;46849;48.154;17.042;2022-12-07T14:09:56;98532.66;;;11.39;57.49
60976;BME280;46849;48.154;17.042;2022-12-07T14:12:42;98528.75;;;10.73;50.75
60976;BME280;46849;48.154;17.042;2022-12-07T14:15:29;98539.34;;;10.71;52.79
60976;BME280;46849;48.154;17.042;2022-12-07T14:18:27;98530.97;;;10.66;55.51
60976;BME280;46849;48.154;17.042;2022-12-07T14:21:22;98531.56;;;10.45;57.49
60976;BME280;46849;48.154;17.042;2022-12-07T14:24:09;98531.44;;;10.84;57.64
60976;BME280;46849;48.154;17.042;2022-12-07T14:27:18;98541.91;;;10.60;58.83
60976;BME280;46849;48.154;17.042;2022-12-07T14:30:16;98536.28;;;10.40;54.22
60976;BME280;46849;48.154;17.042;2022-12-07T14:33:03;98540.81;;;10.25;56.79
60976;BME280;46849;48.154;17.042;2022-12-07T14:35:48;98541.97;;;9.70;60.73
60976;BME280;46849;48.154;17.042;2022-12-07T14:38:34;98546.22;;;9.19;61.24
60976;BME280;46849;48.154;17.042;2022-12-07T14:41:55;98551.75;;;8.74;65.15
60976;BME280;46849;48.154;17.042;2022-12-07T14:44:58;98552.22;;;8.24;64.96
60976;BME280;46849;48.154;17.042;2022-12-07T14:47:47;98558.56;;;7.91;67.37
60976;BME280;46849;48.154;17.042;2022-12-07T14:50:37;98550.25;;;7.55;64.55
60976;BME280;46849;48.154;17.042;2022-12-07T14:53:29;98557.75;;;7.30;66.98
60976;BME280;46849;48.154;17.042;2022-12-07T14:56:29;98554.28;;;7.15;68.36
60976;BME280;46849;48.154;17.042;2022-12-07T14:59:14;98550.03;;;6.98;70.20
60976;BME280;46849;48.154;17.042;2022-12-07T15:02:02;98560.84;;;6.75;68.10
60976;BME280;46849;48.154;17.042;2022-12-07T15:04:55;98561.66;;;6.76;67.89
60976;BME280;46849;48.154;17.042;2022-12-07T15:07:57;98563.13;;;6.33;70.99
60976;BME280;46849;48.154;17.042;2022-12-07T15:10:42;98562.28;;;6.33;71.85
60976;BME280;46849;48.154;17.042;2022-12-07T15:13:49;98562.59;;;5.92;71.50
60976;BME280;46849;48.154;17.042;2022-12-07T15:16:53;98557.78;;;6.99;100.00
60976;BME280;46849;48.154;17.042;2022-12-07T15:19:38;98569.59;;;6.42;80.51
60976;BME280;46849;48.154;17.042;2022-12-07T15:22:24;98559.19;;;5.92;75.18
60976;BME280;46849;48.154;17.042;2022-12-07T15:25:13;98561.63;;;5.26;72.36
60976;BME280;46849;48.154;17.042;2022-12-07T15:27:57;98562.09;;;4.99;72.20
60976;BME280;46849;48.154;17.042;2022-12-07T15:30:43;98572.06;;;4.89;72.44
60976;BME280;46849;48.154;17.042;2022-12-07T15:33:28;98569.44;;;4.71;72.55
60976;BME280;46849;48.154;17.042;2022-12-07T15:36:21;98562.47;;;5.44;82.92
60976;BME280;46849;48.154;17.042;2022-12-07T15:39:09;98565.34;;;4.48;75.49
60976;BME280;46849;48.154;17.042;2022-12-07T15:41:56;98563.38;;;4.34;75.85
60976;BME280;46849;48.154;17.042;2022-12-07T15:44:47;98568.22;;;4.41;75.22
60976;BME280;46849;48.154;17.042;2022-12-07T15:47:51;98568.00;;;4.07;75.87
60976;BME280;46849;48.154;17.042;2022-12-07T15:50:40;98565.50;;;4.06;76.47
60976;BME280;46849;48.154;17.042;2022-12-07T15:53:27;98567.56;;;3.98;75.71
60976;BME280;46849;48.154;17.042;2022-12-07T15:56:12;98570.97;;;3.79;77.24
60976;BME280;46849;48.154;17.042;2022-12-07T15:58:57;98565.16;;;3.74;78.10
60976;BME280;46849;48.154;17.042;2022-12-07T16:01:42;98567.25;;;3.65;78.00
60976;BME280;46849;48.154;17.042;2022-12-07T16:04:28;98568.34;;;3.60;79.29
60976;BME280;46849;48.154;17.042;2022-12-07T16:07:14;98564.78;;;3.41;80.20
60976;BME280;46849;48.154;17.042;2022-12-07T16:09:59;98560.78;;;3.34;79.95
60976;BME280;46849;48.154;17.042;2022-12-07T16:12:44;98567.50;;;3.38;80.16
60976;BME280;46849;48.154;17.042;2022-12-07T16:15:29;98570.88;;;3.40;80.54
60976;BME280;46849;48.154;17.042;2022-12-07T16:18:14;98567.50;;;3.38;79.57
60976;BME280;46849;48.154;17.042;2022-12-07T16:20:59;98559.22;;;3.30;79.80
60976;BME280;46849;48.154;17.042;2022-12-07T16:23:45;98555.94;;;3.26;80.11
60976;BME280;46849;48.154;17.042;2022-12-07T16:26:30;98565.63;;;3.21;80.01
60976;BME280;46849;48.154;17.042;2022-12-07T16:29:18;98562.06;;;3.24;80.02
60976;BME280;46849;48.154;17.042;2022-12-07T16:32:02;98554.56;;;3.17;80.46
60976;BME280;46849;48.154;17.042;2022-12-07T16:34:47;98548.97;;;3.27;80.18
60976;BME280;46849;48.154;17.042;2022-12-07T16:37:32;98558.13;;;3.15;80.39
60976;BME280;46849;48.154;17.042;2022-12-07T16:40:18;98554.63;;;3.16;80.86